sensor_id;sensor_type;location;lat;lon;timestamp;temperature;humidity
20566;DHT22;10441;50.884;12.064;2022-12-07T00:49:08;0.70;99.90
20566;DHT22;10441;50.884;12.064;2022-12-07T00:51:35;0.80;99.90
20566;DHT22;10441;50.884;12.064;2022-12-07T00:54:02;0.90;99.90
20566;DHT22;10441;50.884;12.064;2022-12-07T00:56:29;0.70;99.90
20566;DHT22;10441;50.884;12.064;2022-12-07T00:58:57;0.70;99.90
20566;DHT22;10441;50.884;12.064;2022-12-07T01:01:24;0.90;99.90
20566;DHT22;10441;50.884;12.064;2022-12-07T01:03:51;0.70;99.90
20566;DHT22;10441;50.884;12.064;2022-12-07T01:06:20;0.80;99.90
20566;DHT22;10441;50.884;12.064;2022-12-07T01:08:47;0.80;99.90
20566;DHT22;10441;50.884;12.064;2022-12-07T01:11:15;0.80;99.90
20566;DHT22;10441;50.884;12.064;2022-12-07T01:13:43;0.80;99.90
20566;DHT22;10441;50.884;12.064;2022-12-07T01:16:10;0.80;99.90
20566;DHT22;10441;50.884;12.064;2022-12-07T01:18:38;0.80;99.90
20566;DHT22;10441;50.884;12.064;2022-12-07T01:21:05;0.70;99.90
20566;DHT22;10441;50.884;12.064;2022-12-07T01:23:34;0.60;99.90
20566;DHT22;10441;50.884;12.064;2022-12-07T01:26:03;0.60;99.90
20566;DHT22;10441;50.884;12.064;2022-12-07T01:28:30;0.60;99.90
20566;DHT22;10441;50.884;12.064;2022-12-07T01:30:58;0.60;99.90
20566;DHT22;10441;50.884;12.064;2022-12-07T01:33:26;0.50;99.90
20566;DHT22;10441;50.884;12.064;2022-12-07T01:35:53;0.50;99.90
20566;DHT22;10441;50.884;12.064;2022-12-07T01:38:19;0.40;99.90
20566;DHT22;10441;50.884;12.064;2022-12-07T01:40:54;0.30;99.90
20566;DHT22;10441;50.884;12.064;2022-12-07T01:43:21;0.30;99.90
20566;DHT22;10441;50.884;12.064;2022-12-07T01:45:49;0.10;99.90
20566;DHT22;10441;50.884;12.064;2022-12-07T01:48:16;0.00;99.90
20566;DHT22;10441;50.884;12.064;2022-12-07T01:50:45;-0.10;99.90
20566;DHT22;10441;50.884;12.064;2022-12-07T01:53:14;0.00;99.90
20566;DHT22;10441;50.884;12.064;2022-12-07T01:55:42;-0.10;99.90
20566;DHT22;10441;50.884;12.064;2022-12-07T01:58:10;-0.10;99.90
20566;DHT22;10441;50.884;12.064;2022-12-07T02:00:38;-0.20;99.90
20566;DHT22;10441;50.884;12.064;2022-12-07T02:03:06;-0.20;99.90
20566;DHT22;10441;50.884;12.064;2022-12-07T02:05:40;-0.20;99.90
20566;DHT22;10441;50.884;12.064;2022-12-07T02:08:07;-0.30;99.90
20566;DHT22;10441;50.884;12.064;2022-12-07T02:10:35;-0.30;99.90
20566;DHT22;10441;50.884;12.064;2022-12-07T02:13:03;-0.30;99.90
20566;DHT22;10441;50.884;12.064;2022-12-07T02:15:35;-0.40;99.90
20566;DHT22;10441;50.884;12.064;2022-12-07T02:18:06;-0.40;99.90
20566;DHT22;10441;50.884;12.064;2022-12-07T02:20:33;-0.50;99.90
20566;DHT22;10441;50.884;12.064;2022-12-07T02:26:02;-0.60;99.90
20566;DHT22;10441;50.884;12.064;2022-12-07T02:28:33;-0.50;99.90
20566;DHT22;10441;50.884;12.064;2022-12-07T02:31:03;-0.50;99.90
20566;DHT22;10441;50.884;12.064;2022-12-07T02:33:33;-0.50;99.90
20566;DHT22;10441;50.884;12.064;2022-12-07T02:36:03;-0.50;99.90
20566;DHT22;10441;50.884;12.064;2022-12-07T02:38:34;-0.50;99.90
20566;DHT22;10441;50.884;12.064;2022-12-07T02:41:02;-0.50;99.90
20566;DHT22;10441;50.884;12.064;2022-12-07T02:43:31;-0.40;99.90
20566;DHT22;10441;50.884;12.064;2022-12-07T02:46:01;-0.40;99.90
20566;DHT22;10441;50.884;12.064;2022-12-07T02:48:30;-0.40;99.90
20566;DHT22;10441;50.884;12.064;2022-12-07T02:50:58;-0.30;99.90
20566;DHT22;10441;50.884;12.064;2022-12-07T02:53:28;-0.20;99.90
20566;DHT22;10441;50.884;12.064;2022-12-07T02:55:55;-0.20;99.90
20566;DHT22;10441;50.884;12.064;2022-12-07T02:58:23;-0.20;99.90
20566;DHT22;10441;50.884;12.064;2022-12-07T03:01:05;-0.10;99.90
20566;DHT22;10441;50.884;12.064;2022-12-07T03:03:36;0.00;99.90
20566;DHT22;10441;50.884;12.064;2022-12-07T03:06:06;0.10;99.90
20566;DHT22;10441;50.884;12.064;2022-12-07T03:08:38;0.20;99.90
20566;DHT22;10441;50.884;12.064;2022-12-07T03:11:06;0.10;99.90
20566;DHT22;10441;50.884;12.064;2022-12-07T03:13:34;0.20;99.90
20566;DHT22;10441;50.884;12.064;2022-12-07T05:17:39;1.40;99.90
20566;DHT22;10441;50.884;12.064;2022-12-07T05:20:07;1.40;99.90
20566;DHT22;10441;50.884;12.064;2022-12-07T05:22:36;1.50;99.90
20566;DHT22;10441;50.884;12.064;2022-12-07T05:25:02;1.50;99.90
20566;DHT22;10441;50.884;12.064;2022-12-07T05:27:31;1.50;99.90
20566;DHT22;10441;50.884;12.064;2022-12-07T05:29:58;1.50;99.90
20566;DHT22;10441;50.884;12.064;2022-12-07T05:32:27;1.70;99.90
20566;DHT22;10441;50.884;12.064;2022-12-07T05:34:57;1.70;99.90
20566;DHT22;10441;50.884;12.064;2022-12-07T05:37:24;1.80;99.90
20566;DHT22;10441;50.884;12.064;2022-12-07T05:39:52;1.80;99.90
20566;DHT22;10441;50.884;12.064;2022-12-07T05:42:20;1.80;99.90
20566;DHT22;10441;50.884;12.064;2022-12-07T05:44:47;1.90;99.90
20566;DHT22;10441;50.884;12.064;2022-12-07T05:47:17;1.90;99.90
20566;DHT22;10441;50.884;12.064;2022-12-07T05:49:48;1.90;99.90
20566;DHT22;10441;50.884;12.064;2022-12-07T05:52:20;1.90;99.90
20566;DHT22;10441;50.884;12.064;2022-12-07T05:54:46;1.90;99.90
20566;DHT22;10441;50.884;12.064;2022-12-07T05:57:13;1.90;99.90
20566;DHT22;10441;50.884;12.064;2022-12-07T05:59:41;1.90;99.90
20566;DHT22;10441;50.884;12.064;2022-12-07T06:02:07;2.00;99.90
20566;DHT22;10441;50.884;12.064;2022-12-07T06:04:36;2.00;99.90
20566;DHT22;10441;50.884;12.064;2022-12-07T06:07:03;2.10;99.90
20566;DHT22;10441;50.884;12.064;2022-12-07T06:09:31;2.10;99.90
20566;DHT22;10441;50.884;12.064;2022-12-07T06:11:58;2.20;99.90
20566;DHT22;10441;50.884;12.064;2022-12-07T06:14:43;2.20;99.90
20566;DHT22;10441;50.884;12.064;2022-12-07T07:17:54;2.40;99.90
20566;DHT22;10441;50.884;12.064;2022-12-07T07:20:21;2.30;99.90
20566;DHT22;10441;50.884;12.064;2022-12-07T07:22:48;2.30;99.90
20566;DHT22;10441;50.884;12.064;2022-12-07T07:25:15;2.50;99.90
20566;DHT22;10441;50.884;12.064;2022-12-07T07:27:42;2.50;99.90
20566;DHT22;10441;50.884;12.064;2022-12-07T07:30:09;2.60;99.90
20566;DHT22;10441;50.884;12.064;2022-12-07T07:32:36;2.50;99.90
20566;DHT22;10441;50.884;12.064;2022-12-07T07:35:05;2.60;99.90
20566;DHT22;10441;50.884;12.064;2022-12-07T07:37:32;2.40;99.90
20566;DHT22;10441;50.884;12.064;2022-12-07T07:39:58;2.30;99.90
20566;DHT22;10441;50.884;12.064;2022-12-07T07:42:25;2.20;99.90
20566;DHT22;10441;50.884;12.064;2022-12-07T07:44:52;2.20;99.90
20566;DHT22;10441;50.884;12.064;2022-12-07T07:47:20;2.20;99.90
20566;DHT22;10441;50.884;12.064;2022-12-07T07:49:47;2.10;99.90
20566;DHT22;10441;50.884;12.064;2022-12-07T07:52:15;2.20;99.90
20566;DHT22;10441;50.884;12.064;2022-12-07T07:54:42;2.30;99.90
20566;DHT22;10441;50.884;12.064;2022-12-07T07:57:09;2.30;99.90
20566;DHT22;10441;50.884;12.064;2022-12-07T07:59:35;2.30;99.90
20566;DHT22;10441;50.884;12.064;2022-12-07T08:02:02;2.70;99.90
20566;DHT22;10441;50.884;12.064;2022-12-07T08:04:29;2.70;99.90
20566;DHT22;10441;50.884;12.064;2022-12-07T08:06:56;2.80;99.90
20566;DHT22;10441;50.884;12.064;2022-12-07T08:09:24;3.40;99.90
20566;DHT22;10441;50.884;12.064;2022-12-07T08:11:51;4.10;99.90
20566;DHT22;10441;50.884;12.064;2022-12-07T08:14:18;4.50;99.90
20566;DHT22;10441;50.884;12.064;2022-12-07T08:16:45;3.70;99.90
20566;DHT22;10441;50.884;12.064;2022-12-07T08:19:12;3.30;99.90
20566;DHT22;10441;50.884;12.064;2022-12-07T08:21:38;3.60;99.90
20566;DHT22;10441;50.884;12.064;2022-12-07T08:24:05;3.40;99.90
20566;DHT22;10441;50.884;12.064;2022-12-07T08:26:33;3.20;99.90
20566;DHT22;10441;50.884;12.064;2022-12-07T08:29:00;3.30;99.90
20566;DHT22;10441;50.884;12.064;2022-12-07T08:31:27;3.40;99.90
20566;DHT22;10441;50.884;12.064;2022-12-07T08:33:54;3.80;99.90
20566;DHT22;10441;50.884;12.064;2022-12-07T08:36:21;5.00;99.90
20566;DHT22;10441;50.884;12.064;2022-12-07T08:38:48;6.20;99.90
20566;DHT22;10441;50.884;12.064;2022-12-07T08:41:15;5.30;99.90
20566;DHT22;10441;50.884;12.064;2022-12-07T08:43:44;5.60;99.90
20566;DHT22;10441;50.884;12.064;2022-12-07T08:46:11;6.70;99.90
20566;DHT22;10441;50.884;12.064;2022-12-07T08:48:41;5.60;99.90
20566;DHT22;10441;50.884;12.064;2022-12-07T08:51:09;6.80;99.90
20566;DHT22;10441;50.884;12.064;2022-12-07T08:53:36;5.30;99.90
20566;DHT22;10441;50.884;12.064;2022-12-07T08:56:03;6.40;99.90
20566;DHT22;10441;50.884;12.064;2022-12-07T08:58:31;6.80;99.90
20566;DHT22;10441;50.884;12.064;2022-12-07T09:01:00;7.10;99.90
20566;DHT22;10441;50.884;12.064;2022-12-07T09:03:26;7.30;99.90
20566;DHT22;10441;50.884;12.064;2022-12-07T09:05:53;7.10;99.90
20566;DHT22;10441;50.884;12.064;2022-12-07T09:08:20;7.20;99.90
20566;DHT22;10441;50.884;12.064;2022-12-07T09:10:47;7.20;99.90
20566;DHT22;10441;50.884;12.064;2022-12-07T09:13:14;6.70;99.90
20566;DHT22;10441;50.884;12.064;2022-12-07T09:15:41;6.20;99.90
20566;DHT22;10441;50.884;12.064;2022-12-07T09:18:09;6.40;99.90
20566;DHT22;10441;50.884;12.064;2022-12-07T10:21:17;5.10;99.90
20566;DHT22;10441;50.884;12.064;2022-12-07T10:23:58;5.10;99.90
20566;DHT22;10441;50.884;12.064;2022-12-07T10:26:32;5.00;99.90
20566;DHT22;10441;50.884;12.064;2022-12-07T10:28:59;5.10;99.90
20566;DHT22;10441;50.884;12.064;2022-12-07T10:31:27;5.10;99.90
20566;DHT22;10441;50.884;12.064;2022-12-07T10:33:54;5.20;99.90
20566;DHT22;10441;50.884;12.064;2022-12-07T10:36:24;5.20;99.90
20566;DHT22;10441;50.884;12.064;2022-12-07T10:38:52;5.30;99.90
20566;DHT22;10441;50.884;12.064;2022-12-07T10:41:19;5.40;99.90
20566;DHT22;10441;50.884;12.064;2022-12-07T10:43:47;5.60;99.90
20566;DHT22;10441;50.884;12.064;2022-12-07T10:49:08;5.50;99.90
20566;DHT22;10441;50.884;12.064;2022-12-07T10:51:40;5.40;99.90
20566;DHT22;10441;50.884;12.064;2022-12-07T10:54:10;5.20;99.90
20566;DHT22;10441;50.884;12.064;2022-12-07T10:56:54;5.40;99.90
20566;DHT22;10441;50.884;12.064;2022-12-07T10:59:39;5.40;99.90
20566;DHT22;10441;50.884;12.064;2022-12-07T11:02:12;5.50;99.90
20566;DHT22;10441;50.884;12.064;2022-12-07T11:04:49;5.40;99.90
20566;DHT22;10441;50.884;12.064;2022-12-07T11:07:22;5.40;99.90
20566;DHT22;10441;50.884;12.064;2022-12-07T11:09:59;5.40;99.90
20566;DHT22;10441;50.884;12.064;2022-12-07T11:12:31;5.20;99.90
20566;DHT22;10441;50.884;12.064;2022-12-07T11:15:04;5.30;99.90
20566;DHT22;10441;50.884;12.064;2022-12-07T11:17:36;5.40;99.90
20566;DHT22;10441;50.884;12.064;2022-12-07T11:20:12;5.20;99.90
20566;DHT22;10441;50.884;12.064;2022-12-07T12:23:23;5.80;99.90
20566;DHT22;10441;50.884;12.064;2022-12-07T12:25:51;5.80;99.90
20566;DHT22;10441;50.884;12.064;2022-12-07T12:28:20;5.70;99.90
20566;DHT22;10441;50.884;12.064;2022-12-07T12:31:03;6.10;99.90
20566;DHT22;10441;50.884;12.064;2022-12-07T12:33:30;6.10;99.90
20566;DHT22;10441;50.884;12.064;2022-12-07T12:38:51;6.00;99.90
20566;DHT22;10441;50.884;12.064;2022-12-07T12:44:08;6.10;99.90
20566;DHT22;10441;50.884;12.064;2022-12-07T12:46:53;6.00;99.90
20566;DHT22;10441;50.884;12.064;2022-12-07T12:54:59;6.30;99.90
20566;DHT22;10441;50.884;12.064;2022-12-07T12:57:30;6.30;99.90
20566;DHT22;10441;50.884;12.064;2022-12-07T12:59:57;6.00;99.90
20566;DHT22;10441;50.884;12.064;2022-12-07T13:02:25;6.50;99.90
20566;DHT22;10441;50.884;12.064;2022-12-07T13:04:53;6.30;99.90
20566;DHT22;10441;50.884;12.064;2022-12-07T13:10:12;5.80;99.90
20566;DHT22;10441;50.884;12.064;2022-12-07T13:12:54;6.20;99.90
20566;DHT22;10441;50.884;12.064;2022-12-07T13:15:31;6.00;99.90
20566;DHT22;10441;50.884;12.064;2022-12-07T13:17:59;5.70;99.90
20566;DHT22;10441;50.884;12.064;2022-12-07T13:23:29;6.90;99.90
20566;DHT22;10441;50.884;12.064;2022-12-07T13:26:04;6.00;99.90
20566;DHT22;10441;50.884;12.064;2022-12-07T13:28:35;5.40;99.90
20566;DHT22;10441;50.884;12.064;2022-12-07T13:31:15;5.20;99.90
20566;DHT22;10441;50.884;12.064;2022-12-07T13:33:45;5.30;99.90
20566;DHT22;10441;50.884;12.064;2022-12-07T13:36:16;5.10;99.90
20566;DHT22;10441;50.884;12.064;2022-12-07T13:38:48;4.90;99.90
20566;DHT22;10441;50.884;12.064;2022-12-07T13:41:17;4.70;99.90
20566;DHT22;10441;50.884;12.064;2022-12-07T13:43:55;4.70;99.90
20566;DHT22;10441;50.884;12.064;2022-12-07T13:46:26;4.40;99.90
20566;DHT22;10441;50.884;12.064;2022-12-07T13:48:56;4.50;99.90
20566;DHT22;10441;50.884;12.064;2022-12-07T13:51:23;4.30;99.90
20566;DHT22;10441;50.884;12.064;2022-12-07T13:53:51;4.40;99.90
20566;DHT22;10441;50.884;12.064;2022-12-07T13:56:20;4.30;99.90
20566;DHT22;10441;50.884;12.064;2022-12-07T13:58:47;4.10;99.90
20566;DHT22;10441;50.884;12.064;2022-12-07T14:01:14;4.00;99.90
20566;DHT22;10441;50.884;12.064;2022-12-07T14:03:41;3.80;99.90
20566;DHT22;10441;50.884;12.064;2022-12-07T14:06:13;3.70;99.90
20566;DHT22;10441;50.884;12.064;2022-12-07T14:08:41;3.70;99.90
20566;DHT22;10441;50.884;12.064;2022-12-07T14:11:08;3.50;99.90
20566;DHT22;10441;50.884;12.064;2022-12-07T14:13:39;3.60;99.90
20566;DHT22;10441;50.884;12.064;2022-12-07T14:16:17;3.60;99.90
20566;DHT22;10441;50.884;12.064;2022-12-07T14:18:44;3.60;99.90
20566;DHT22;10441;50.884;12.064;2022-12-07T14:21:14;3.60;99.90
20566;DHT22;10441;50.884;12.064;2022-12-07T18:24:31;1.50;99.90
20566;DHT22;10441;50.884;12.064;2022-12-07T18:26:58;1.50;99.90
20566;DHT22;10441;50.884;12.064;2022-12-07T18:29:24;1.50;99.90
20566;DHT22;10441;50.884;12.064;2022-12-07T18:31:51;1.60;99.90
20566;DHT22;10441;50.884;12.064;2022-12-07T18:34:18;1.50;99.90
20566;DHT22;10441;50.884;12.064;2022-12-07T18:36:46;1.60;99.90
20566;DHT22;10441;50.884;12.064;2022-12-07T18:39:14;1.70;99.90
20566;DHT22;10441;50.884;12.064;2022-12-07T18:41:42;1.70;99.90
20566;DHT22;10441;50.884;12.064;2022-12-07T18:44:09;1.80;99.90
20566;DHT22;10441;50.884;12.064;2022-12-07T18:46:37;1.90;99.90
20566;DHT22;10441;50.884;12.064;2022-12-07T18:49:05;1.90;99.90
20566;DHT22;10441;50.884;12.064;2022-12-07T18:51:32;2.00;99.90
20566;DHT22;10441;50.884;12.064;2022-12-07T18:53:59;1.90;99.90
20566;DHT22;10441;50.884;12.064;2022-12-07T18:56:27;1.90;99.90
20566;DHT22;10441;50.884;12.064;2022-12-07T18:58:56;1.70;99.90
20566;DHT22;10441;50.884;12.064;2022-12-07T19:01:41;1.70;99.90
20566;DHT22;10441;50.884;12.064;2022-12-07T19:04:09;1.80;99.90
20566;DHT22;10441;50.884;12.064;2022-12-07T19:06:35;1.90;99.90
20566;DHT22;10441;50.884;12.064;2022-12-07T19:09:03;1.90;99.90
20566;DHT22;10441;50.884;12.064;2022-12-07T19:11:30;1.90;99.90
20566;DHT22;10441;50.884;12.064;2022-12-07T19:14:18;1.80;99.90
20566;DHT22;10441;50.884;12.064;2022-12-07T19:16:45;1.70;99.90
20566;DHT22;10441;50.884;12.064;2022-12-07T19:19:14;1.80;99.90
20566;DHT22;10441;50.884;12.064;2022-12-07T19:21:42;1.80;99.90
20566;DHT22;10441;50.884;12.064;2022-12-07T19:24:08;1.80;99.90
20566;DHT22;10441;50.884;12.064;2022-12-07T19:26:35;1.90;99.90
20566;DHT22;10441;50.884;12.064;2022-12-07T19:29:02;1.80;99.90
20566;DHT22;10441;50.884;12.064;2022-12-07T19:31:30;1.90;99.90
20566;DHT22;10441;50.884;12.064;2022-12-07T19:33:57;2.00;99.90
20566;DHT22;10441;50.884;12.064;2022-12-07T19:36:24;1.90;99.90
20566;DHT22;10441;50.884;12.064;2022-12-07T19:38:51;2.10;99.90
20566;DHT22;10441;50.884;12.064;2022-12-07T19:41:18;2.20;99.90
20566;DHT22;10441;50.884;12.064;2022-12-07T19:44:01;2.30;99.90
20566;DHT22;10441;50.884;12.064;2022-12-07T19:46:29;2.30;99.90
20566;DHT22;10441;50.884;12.064;2022-12-07T19:48:57;2.30;99.90
20566;DHT22;10441;50.884;12.064;2022-12-07T19:51:25;2.30;99.90
20566;DHT22;10441;50.884;12.064;2022-12-07T19:53:51;2.50;99.90
20566;DHT22;10441;50.884;12.064;2022-12-07T19:56:20;2.40;99.90
20566;DHT22;10441;50.884;12.064;2022-12-07T19:58:48;2.40;99.90
20566;DHT22;10441;50.884;12.064;2022-12-07T20:01:15;2.50;99.90
20566;DHT22;10441;50.884;12.064;2022-12-07T20:03:45;2.40;99.90
20566;DHT22;10441;50.884;12.064;2022-12-07T20:06:21;2.40;99.90
20566;DHT22;10441;50.884;12.064;2022-12-07T20:09:05;2.40;99.90
20566;DHT22;10441;50.884;12.064;2022-12-07T20:11:31;2.30;99.90
20566;DHT22;10441;50.884;12.064;2022-12-07T20:14:16;2.20;99.90
20566;DHT22;10441;50.884;12.064;2022-12-07T20:16:44;2.30;99.90
20566;DHT22;10441;50.884;12.064;2022-12-07T20:19:11;2.20;99.90
20566;DHT22;10441;50.884;12.064;2022-12-07T20:21:39;2.30;99.90
20566;DHT22;10441;50.884;12.064;2022-12-07T20:24:08;2.30;99.90
20566;DHT22;10441;50.884;12.064;2022-12-07T21:13:42;2.10;99.90
20566;DHT22;10441;50.884;12.064;2022-12-07T21:16:09;2.10;99.90
20566;DHT22;10441;50.884;12.064;2022-12-07T21:18:38;2.10;99.90
20566;DHT22;10441;50.884;12.064;2022-12-07T21:21:08;2.00;99.90
20566;DHT22;10441;50.884;12.064;2022-12-07T21:23:36;2.10;99.90
20566;DHT22;10441;50.884;12.064;2022-12-07T21:26:08;2.10;99.90
20566;DHT22;10441;50.884;12.064;2022-12-07T21:28:36;2.00;99.90
20566;DHT22;10441;50.884;12.064;2022-12-07T21:31:05;2.00;99.90
20566;DHT22;10441;50.884;12.064;2022-12-07T21:33:34;2.10;99.90
20566;DHT22;10441;50.884;12.064;2022-12-07T21:36:03;2.10;99.90
20566;DHT22;10441;50.884;12.064;2022-12-07T21:38:31;2.10;99.90
20566;DHT22;10441;50.884;12.064;2022-12-07T21:40:59;2.00;99.90
20566;DHT22;10441;50.884;12.064;2022-12-07T21:43:39;2.00;99.90
20566;DHT22;10441;50.884;12.064;2022-12-07T21:46:25;2.00;99.90
20566;DHT22;10441;50.884;12.064;2022-12-07T21:48:54;2.00;99.90
20566;DHT22;10441;50.884;12.064;2022-12-07T21:51:23;2.00;99.90
20566;DHT22;10441;50.884;12.064;2022-12-07T21:53:52;2.00;99.90
20566;DHT22;10441;50.884;12.064;2022-12-07T21:56:21;2.00;99.90
20566;DHT22;10441;50.884;12.064;2022-12-07T21:58:51;2.00;99.90
20566;DHT22;10441;50.884;12.064;2022-12-07T22:01:18;2.00;99.90
20566;DHT22;10441;50.884;12.064;2022-12-07T22:03:48;2.10;99.90
20566;DHT22;10441;50.884;12.064;2022-12-07T22:06:18;2.00;99.90
20566;DHT22;10441;50.884;12.064;2022-12-07T22:08:46;2.00;99.90
20566;DHT22;10441;50.884;12.064;2022-12-07T22:11:13;1.90;99.90
20566;DHT22;10441;50.884;12.064;2022-12-07T23:15:10;1.70;99.90
20566;DHT22;10441;50.884;12.064;2022-12-07T23:17:37;1.70;99.90
20566;DHT22;10441;50.884;12.064;2022-12-07T23:20:04;1.70;99.90
20566;DHT22;10441;50.884;12.064;2022-12-07T23:22:31;1.70;99.90
20566;DHT22;10441;50.884;12.064;2022-12-07T23:24:58;1.70;99.90
20566;DHT22;10441;50.884;12.064;2022-12-07T23:27:24;1.70;99.90
20566;DHT22;10441;50.884;12.064;2022-12-07T23:29:51;1.70;99.90
20566;DHT22;10441;50.884;12.064;2022-12-07T23:32:20;1.60;99.90
20566;DHT22;10441;50.884;12.064;2022-12-07T23:34:46;1.70;99.90
20566;DHT22;10441;50.884;12.064;2022-12-07T23:37:13;1.70;99.90
20566;DHT22;10441;50.884;12.064;2022-12-07T23:39:40;1.70;99.90
20566;DHT22;10441;50.884;12.064;2022-12-07T23:42:07;1.70;99.90
20566;DHT22;10441;50.884;12.064;2022-12-07T23:44:34;1.70;99.90
20566;DHT22;10441;50.884;12.064;2022-12-07T23:47:00;1.60;99.90
20566;DHT22;10441;50.884;12.064;2022-12-07T23:49:28;1.60;99.90
20566;DHT22;10441;50.884;12.064;2022-12-07T23:51:55;1.70;99.90
20566;DHT22;10441;50.884;12.064;2022-12-07T23:54:22;1.80;99.90
20566;DHT22;10441;50.884;12.064;2022-12-07T23:56:49;1.70;99.90
20566;DHT22;10441;50.884;12.064;2022-12-07T23:59:16;1.70;99.90
